Time;durP1;ratioP1;P1;durP2;ratioP2;P2;SDS_P1;SDS_P2;PMS_P1;PMS_P2;Temp;Humidity;BMP_temperature;BMP_pressure;BME280_temperature;BME280_humidity;BME280_pressure;Samples;Min_cycle;Max_cycle;Signal;HPM_P1;HPM_P2
2022/10/31 00:00:57;;;;;;;26.60;15.10;;;;;;;14.20;63.74;99370.43;226408;1238;139514;-66
2022/10/31 00:06:20;;;;;;;24.00;14.40;;;;;;;14.12;63.77;99370.10;226250;1236;139783;-65
2022/10/31 00:11:23;;;;;;;26.10;13.70;;;;;;;14.10;63.81;99370.31;225414;1240;140779;-65
2022/10/31 00:16:28;;;;;;;25.70;14.50;;;;;;;14.10;63.75;99367.27;226832;1237;139935;-67
2022/10/31 00:21:32;;;;;;;24.20;14.40;;;;;;;14.09;63.80;99375.91;225568;1240;139773;-65
2022/10/31 00:26:35;;;;;;;30.40;15.80;;;;;;;14.05;63.75;99378.67;225500;1244;139606;-64
2022/10/31 00:31:38;;;;;;;22.60;15.20;;;;;;;14.01;63.84;99382.00;226266;1238;138964;-65
2022/10/31 00:36:42;;;;;;;24.80;14.80;;;;;;;13.96;63.78;99383.02;226362;1238;139623;-66
2022/10/31 00:41:48;;;;;;;24.50;15.00;;;;;;;13.89;63.76;99382.30;225345;1246;139696;-65
2022/10/31 00:46:51;;;;;;;25.70;14.90;;;;;;;13.81;63.85;99381.95;225578;1238;139371;-61
2022/10/31 00:51:57;;;;;;;;;;;;;;;13.72;63.82;99386.16;226530;1236;139292;-72
2022/10/31 00:56:59;;;;;;;24.90;13.50;;;;;;;13.67;63.99;99390.27;225243;1246;126882;-75
2022/10/31 01:02:02;;;;;;;25.20;13.80;;;;;;;13.65;64.06;99384.84;225309;1237;139626;-72
2022/10/31 01:07:06;;;;;;;24.80;16.10;;;;;;;13.65;64.41;99383.95;225662;1237;139164;-74
2022/10/31 01:12:08;;;;;;;29.90;19.70;;;;;;;13.76;65.28;99377.30;225760;1244;139413;-64
2022/10/31 01:17:14;;;;;;;31.70;19.80;;;;;;;13.99;66.12;99375.90;225387;1237;139322;-65
2022/10/31 01:22:17;;;;;;;32.50;17.60;;;;;;;14.18;66.21;99373.48;225508;1240;140200;-63
2022/10/31 01:27:19;;;;;;;32.00;19.80;;;;;;;14.35;66.06;99377.39;225310;1238;139643;-63
2022/10/31 01:32:24;;;;;;;27.30;15.10;;;;;;;14.47;65.64;99369.27;225494;1246;141551;-62
2022/10/31 01:37:27;;;;;;;23.80;15.30;;;;;;;14.39;64.87;99363.15;226556;1230;139696;-66
2022/10/31 01:42:30;;;;;;;25.70;15.50;;;;;;;14.31;64.73;99364.11;226383;1241;139427;-72
2022/10/31 01:47:40;;;;;;;33.40;18.40;;;;;;;14.23;64.75;99359.02;225588;1253;139498;-69
2022/10/31 01:52:49;;;;;;;32.10;19.30;;;;;;;14.29;65.71;99356.05;225729;1240;139496;-68
2022/10/31 01:57:57;;;;;;;29.70;17.20;;;;;;;14.33;65.43;99355.56;225799;1244;139504;-67
2022/10/31 02:03:01;;;;;;;32.50;17.60;;;;;;;14.26;64.78;99357.76;225653;1229;139886;-66
2022/10/31 02:08:11;;;;;;;27.00;18.50;;;;;;;14.22;64.71;99356.75;225604;1239;139773;-64
2022/10/31 02:13:14;;;;;;;31.40;19.10;;;;;;;14.25;65.19;99361.15;225649;1244;140693;-64
2022/10/31 02:18:24;;;;;;;30.60;19.00;;;;;;;14.37;65.71;99361.91;225589;1236;139510;-68
2022/10/31 02:23:48;;;;;;;26.80;19.30;;;;;;;14.47;65.85;99357.27;226501;1237;139201;-63
2022/10/31 02:29:04;;;;;;;30.80;17.60;;;;;;;14.54;65.45;99362.73;225698;1237;139956;-68
2022/10/31 02:34:13;;;;;;;28.40;18.70;;;;;;;14.38;64.57;99361.30;225716;1242;139269;-70
2022/10/31 02:39:51;;;;;;;32.10;18.90;;;;;;;14.25;64.73;99365.97;225756;1245;139183;-69
2022/10/31 02:45:10;;;;;;;31.30;19.40;;;;;;;14.23;65.22;99371.13;225161;1239;139297;-72
2022/10/31 02:50:23;;;;;;;32.70;18.40;;;;;;;14.31;65.44;99372.52;225497;1230;140448;-67
2022/10/31 02:55:26;;;;;;;31.60;17.80;;;;;;;14.38;65.41;99375.72;225437;1246;139738;-68
2022/10/31 03:00:47;;;;;;;27.30;17.20;;;;;;;14.43;65.44;99379.33;225536;1247;139997;-67
2022/10/31 03:06:29;;;;;;;29.20;18.70;;;;;;;14.49;65.65;99378.35;226701;1234;139134;-73
2022/10/31 03:11:49;;;;;;;31.70;18.60;;;;;;;14.58;65.70;99375.78;225258;1240;139643;-65
2022/10/31 03:16:56;;;;;;;31.50;18.60;;;;;;;14.62;65.43;99379.35;225325;1239;139568;-70
2022/10/31 03:22:25;;;;;;;28.60;17.50;;;;;;;14.56;65.12;99383.92;226461;1231;139610;-67
2022/10/31 03:27:34;;;;;;;23.30;17.60;;;;;;;14.60;65.20;99387.55;225538;1243;139946;-62
2022/10/31 03:32:54;;;;;;;28.80;17.40;;;;;;;14.62;65.12;99385.31;226425;1239;140073;-62
2022/10/31 03:38:00;;;;;;;25.50;16.50;;;;;;;14.58;65.13;99388.58;226169;1239;139513;-63
2022/10/31 03:43:19;;;;;;;28.30;17.30;;;;;;;14.59;65.13;99391.73;225276;1246;139349;-66
2022/10/31 03:48:27;;;;;;;27.40;17.00;;;;;;;14.56;65.12;99399.09;226378;1240;139280;-66
2022/10/31 03:53:48;;;;;;;23.80;17.50;;;;;;;14.54;64.93;99401.98;225382;1239;139787;-64
2022/10/31 03:59:00;;;;;;;70.30;47.10;;;;;;;14.54;65.02;99400.15;226345;1241;140422;-65
2022/10/31 04:04:06;;;;;;;57.40;41.70;;;;;;;14.53;64.82;99397.70;225549;1246;140013;-67
2022/10/31 04:09:09;;;;;;;28.10;17.40;;;;;;;14.51;64.75;99397.35;226393;1241;141601;-66
2022/10/31 04:14:12;;;;;;;27.60;15.90;;;;;;;14.53;64.72;99397.20;226545;1229;140197;-66
2022/10/31 04:19:17;;;;;;;24.60;16.60;;;;;;;14.47;64.61;99398.30;226256;1237;139246;-67
2022/10/31 04:24:20;;;;;;;27.70;16.50;;;;;;;14.42;64.62;99399.20;225276;1248;140085;-66
2022/10/31 04:29:23;;;;;;;25.10;16.90;;;;;;;14.36;64.47;99399.23;225498;1239;139963;-66
2022/10/31 04:34:26;;;;;;;29.20;19.10;;;;;;;14.32;64.58;99401.89;225666;1246;139645;-65
2022/10/31 04:39:29;;;;;;;32.00;17.20;;;;;;;14.24;64.42;99402.66;225588;1245;139105;-62
2022/10/31 04:44:52;;;;;;;27.80;16.30;;;;;;;14.24;64.80;99400.69;226791;1233;140696;-62
2022/10/31 04:49:55;;;;;;;28.50;15.80;;;;;;;14.23;64.73;99400.56;225538;1246;139205;-62
2022/10/31 04:54:58;;;;;;;24.90;15.20;;;;;;;14.25;64.58;99402.35;225473;1246;139925;-62
2022/10/31 05:00:28;;;;;;;26.90;16.60;;;;;;;14.33;64.68;99405.04;226638;1237;140175;-63
2022/10/31 05:05:32;;;;;;;32.70;18.80;;;;;;;14.34;64.55;99407.59;225550;1239;141516;-62
2022/10/31 05:10:38;;;;;;;30.90;16.70;;;;;;;14.32;64.51;99410.30;226390;1237;139126;-63
2022/10/31 05:15:40;;;;;;;28.70;17.70;;;;;;;14.17;63.99;99414.23;225509;1245;139750;-64
2022/10/31 05:21:02;;;;;;;26.40;16.90;;;;;;;13.99;63.56;99419.78;225585;1242;140465;-62
2022/10/31 05:26:13;;;;;;;26.50;16.40;;;;;;;13.81;63.78;99417.06;225742;1245;140076;-63
2022/10/31 05:31:16;;;;;;;25.20;17.00;;;;;;;13.66;63.81;99422.92;225337;1246;139773;-68
2022/10/31 05:36:19;;;;;;;30.50;16.90;;;;;;;13.56;64.21;99422.58;225405;1248;139548;-67
2022/10/31 05:41:38;;;;;;;26.00;16.60;;;;;;;13.54;64.43;99431.23;225506;1231;139995;-67
2022/10/31 05:46:48;;;;;;;26.80;16.30;;;;;;;13.58;64.61;99430.98;225576;1243;141704;-65
2022/10/31 05:52:29;;;;;;;28.70;16.50;;;;;;;13.57;64.34;99439.25;225599;1242;139751;-65
2022/10/31 05:57:37;;;;;;;20.70;15.40;;;;;;;13.51;64.43;99443.92;225333;1244;139196;-64
2022/10/31 06:02:40;;;;;;;30.50;17.40;;;;;;;13.46;64.57;99448.55;225651;1243;139893;-66
2022/10/31 06:08:06;;;;;;;28.90;18.00;;;;;;;13.42;64.83;99455.41;225611;1240;139399;-67
2022/10/31 06:13:10;;;;;;;25.50;15.80;;;;;;;13.39;64.96;99455.45;226368;1235;139848;-71
2022/10/31 06:18:19;;;;;;;27.40;16.90;;;;;;;13.37;65.12;99461.94;225248;1242;139569;-68
2022/10/31 06:23:24;;;;;;;32.90;17.00;;;;;;;13.42;65.34;99467.49;226540;1237;140500;-68
2022/10/31 06:28:31;;;;;;;25.30;16.90;;;;;;;13.53;65.64;99472.98;225488;1247;141147;-68
2022/10/31 06:33:48;;;;;;;27.00;17.10;;;;;;;13.67;65.99;99477.58;226648;1237;140237;-69
2022/10/31 06:38:52;;;;;;;26.60;17.10;;;;;;;13.80;66.04;99480.84;225514;1245;139257;-64
2022/10/31 06:43:57;;;;;;;27.20;16.70;;;;;;;13.95;66.11;99488.49;225465;1244;139491;-66
2022/10/31 06:49:22;;;;;;;26.80;16.70;;;;;;;14.07;65.87;99486.14;225563;1244;140175;-65
2022/10/31 06:54:29;;;;;;;33.30;16.90;;;;;;;14.17;65.90;99490.77;225400;1237;138906;-65
2022/10/31 06:59:32;;;;;;;29.50;18.90;;;;;;;14.25;65.74;99497.16;225973;1234;140386;-69
2022/10/31 07:04:40;;;;;;;28.80;15.50;;;;;;;14.34;65.70;99498.83;225195;1244;141398;-67
2022/10/31 07:09:46;;;;;;;24.80;14.80;;;;;;;14.51;65.86;99499.31;225260;1244;139941;-66
2022/10/31 07:14:50;;;;;;;25.70;14.30;;;;;;;14.70;65.87;99499.90;225113;1241;139234;-66
2022/10/31 07:19:53;;;;;;;26.80;14.30;;;;;;;14.88;65.83;99502.39;225118;1237;140774;-65
2022/10/31 07:24:56;;;;;;;32.10;15.40;;;;;;;15.01;65.54;99506.77;225081;1237;140672;-65
2022/10/31 07:30:13;;;;;;;25.10;13.70;;;;;;;15.12;65.33;99505.44;225169;1243;140899;-65
2022/10/31 07:35:27;;;;;;;18.90;11.20;;;;;;;15.21;65.22;99502.11;225062;1242;139987;-66
2022/10/31 07:40:34;;;;;;;26.20;13.10;;;;;;;15.77;67.70;99501.13;225069;1236;140534;-65
2022/10/31 07:45:37;;;;;;;28.70;13.80;;;;;;;16.27;65.65;99495.30;224866;1245;140860;-66
2022/10/31 07:51:00;;;;;;;26.00;13.50;;;;;;;16.21;64.00;99494.13;226119;1233;140504;-66
2022/10/31 07:56:22;;;;;;;21.20;13.30;;;;;;;16.13;63.65;99497.30;226251;1234;140119;-66
2022/10/31 08:01:25;;;;;;;22.50;13.10;;;;;;;16.09;63.42;99497.76;225073;1243;140232;-66
2022/10/31 08:06:56;;;;;;;24.40;13.00;;;;;;;16.08;63.12;99494.43;225113;1237;139630;-65
2022/10/31 08:12:03;;;;;;;20.50;12.00;;;;;;;16.10;63.11;99498.41;224992;1239;140311;-65
2022/10/31 08:17:07;;;;;;;18.90;11.30;;;;;;;16.12;63.07;99500.46;226118;1236;140166;-67
2022/10/31 08:22:19;;;;;;;27.50;13.20;;;;;;;16.16;62.80;99501.23;225969;1242;140364;-68
2022/10/31 08:27:23;;;;;;;20.40;12.40;;;;;;;16.26;63.01;99502.86;225048;1243;140643;-69
2022/10/31 08:32:26;;;;;;;29.10;17.10;;;;;;;16.36;62.71;99499.77;224944;1241;140051;-68
2022/10/31 08:38:12;;;;;;;23.10;11.80;;;;;;;16.47;62.54;99496.45;225255;1243;139565;-68
2022/10/31 08:43:18;;;;;;;25.40;12.40;;;;;;;16.62;62.57;99497.92;225422;1245;140771;-70
2022/10/31 08:48:22;;;;;;;25.40;11.60;;;;;;;16.78;62.43;99496.16;225564;1241;139329;-69
2022/10/31 08:53:26;;;;;;;20.40;11.20;;;;;;;16.92;62.16;99493.23;226530;1238;139729;-69
2022/10/31 08:58:53;;;;;;;23.30;11.90;;;;;;;17.04;61.93;99491.90;225657;1244;139260;-70
2022/10/31 09:04:05;;;;;;;22.10;10.60;;;;;;;17.18;61.77;99486.45;225432;1240;139531;-70
2022/10/31 09:09:07;;;;;;;23.80;11.00;;;;;;;17.27;61.36;99482.98;226207;1237;140043;-69
2022/10/31 09:14:10;;;;;;;17.20;9.60;;;;;;;17.39;61.37;99488.80;225449;1243;139796;-67
2022/10/31 09:19:13;;;;;;;17.70;9.70;;;;;;;17.54;61.17;99490.56;225516;1244;140240;-69
2022/10/31 09:24:21;;;;;;;18.50;8.80;;;;;;;17.66;60.78;99486.70;225386;1243;139741;-72
2022/10/31 09:29:24;;;;;;;20.50;9.00;;;;;;;17.77;60.55;99488.30;225473;1243;139233;-70
2022/10/31 09:34:32;;;;;;;15.80;8.20;;;;;;;17.92;60.49;99484.40;226614;1234;140401;-68
2022/10/31 09:39:44;;;;;;;15.00;8.30;;;;;;;18.06;60.16;99490.34;226326;1233;139729;-69
2022/10/31 09:45:11;;;;;;;14.80;7.30;;;;;;;18.22;59.90;99493.14;225445;1243;140466;-73
2022/10/31 09:50:32;;;;;;;18.60;8.20;;;;;;;18.38;59.59;99492.61;225425;1240;139212;-69
2022/10/31 09:55:42;;;;;;;13.40;6.80;;;;;;;18.57;59.32;99496.38;225500;1243;139127;-69
2022/10/31 10:00:47;;;;;;;13.20;6.90;;;;;;;18.72;58.94;99495.25;226630;1237;140276;-68
2022/10/31 10:05:50;;;;;;;;;;;;;;;18.87;58.63;99495.75;225482;1253;139071;-68
2022/10/31 10:11:19;;;;;;;21.10;7.40;;;;;;;19.03;58.47;99500.00;225475;1248;126239;-68
2022/10/31 10:17:01;;;;;;;15.50;6.30;;;;;;;19.25;58.03;99495.33;226660;1240;140188;-68
2022/10/31 10:22:34;;;;;;;35.90;20.90;;;;;;;19.49;57.79;99492.04;225582;1251;140277;-69
2022/10/31 10:27:49;;;;;;;20.10;7.50;;;;;;;19.76;57.51;99489.64;225406;1248;140311;-71
2022/10/31 10:32:57;;;;;;;16.30;7.10;;;;;;;19.98;57.25;99479.91;226380;1238;139740;-70
2022/10/31 10:38:21;;;;;;;16.70;6.20;;;;;;;20.16;56.72;99480.66;225561;1245;139409;-68
2022/10/31 10:43:32;;;;;;;16.40;7.00;;;;;;;20.33;56.51;99479.88;225711;1240;139319;-68
2022/10/31 10:48:43;;;;;;;15.70;6.60;;;;;;;20.45;55.84;99477.31;226415;1237;139133;-67
2022/10/31 10:54:00;;;;;;;16.00;6.00;;;;;;;20.50;55.47;99475.05;225543;1244;140317;-67
2022/10/31 10:59:13;;;;;;;15.50;6.20;;;;;;;20.55;55.19;99470.42;225569;1247;139154;-69
2022/10/31 11:04:33;;;;;;;19.20;6.50;;;;;;;20.62;54.98;99469.27;225534;1248;139887;-69
2022/10/31 11:09:37;;;;;;;18.10;6.00;;;;;;;20.69;54.94;99466.23;225406;1243;139384;-66
2022/10/31 11:14:50;;;;;;;14.80;6.80;;;;;;;20.78;54.69;99466.41;225473;1241;139128;-70
2022/10/31 11:20:30;;;;;;;15.30;6.20;;;;;;;20.89;54.47;99465.65;225464;1248;139541;-69
2022/10/31 11:25:33;;;;;;;13.90;6.30;;;;;;;20.99;54.16;99462.70;225202;1247;139615;-66
2022/10/31 11:30:46;;;;;;;64.30;42.10;;;;;;;21.10;53.95;99456.75;226466;1229;139939;-68
2022/10/31 11:35:49;;;;;;;14.80;5.90;;;;;;;21.20;53.71;99450.31;225599;1244;141736;-68
2022/10/31 11:41:10;;;;;;;15.50;5.60;;;;;;;21.32;53.55;99450.80;226584;1235;139116;-70
2022/10/31 11:46:45;;;;;;;14.00;6.00;;;;;;;21.45;53.22;99447.98;225740;1237;139477;-70
2022/10/31 11:51:56;;;;;;;11.90;6.00;;;;;;;21.60;53.13;99445.41;225426;1248;140843;-68
2022/10/31 11:56:59;;;;;;;14.70;6.40;;;;;;;21.75;52.98;99444.96;225521;1245;139679;-64
2022/10/31 12:02:18;;;;;;;11.30;5.80;;;;;;;21.86;52.73;99441.84;226619;1237;139979;-67
2022/10/31 12:07:23;;;;;;;18.80;6.50;;;;;;;21.93;52.42;99435.48;226416;1238;139628;-69
2022/10/31 12:12:43;;;;;;;16.20;4.90;;;;;;;22.01;52.27;99432.08;226444;1222;139140;-66
2022/10/31 12:18:02;;;;;;;15.70;5.90;;;;;;;22.05;52.11;99430.69;225598;1252;139913;-65
2022/10/31 12:23:43;;;;;;;14.40;5.10;;;;;;;22.12;51.66;99425.86;226668;1237;139590;-64
2022/10/31 12:28:59;;;;;;;17.80;6.30;;;;;;;22.18;51.69;99420.56;226552;1237;139879;-64
2022/10/31 12:34:21;;;;;;;15.80;5.40;;;;;;;22.24;51.40;99421.35;226746;1235;139749;-63
2022/10/31 12:39:34;;;;;;;15.00;5.80;;;;;;;22.29;51.20;99419.38;226562;1237;139112;-66
2022/10/31 12:44:52;;;;;;;14.50;6.00;;;;;;;22.35;51.01;99419.28;225390;1242;139150;-67
2022/10/31 12:50:06;;;;;;;16.20;6.50;;;;;;;22.41;50.90;99415.15;225507;1240;139433;-65
2022/10/31 12:55:22;;;;;;;19.60;6.30;;;;;;;22.47;50.86;99415.17;225650;1244;140614;-66
2022/10/31 13:00:26;;;;;;;;;;;;;;;22.50;50.50;99407.96;225288;1248;140632;-63
2022/10/31 13:05:44;;;;;;;15.40;5.80;;;;;;;22.52;50.37;99407.80;225125;1248;125023;-64
2022/10/31 13:11:05;;;;;;;15.80;6.20;;;;;;;22.59;50.40;99404.65;225393;1239;139639;-67
2022/10/31 13:16:17;;;;;;;17.30;5.80;;;;;;;22.70;50.25;99405.84;226551;1238;140236;-66
2022/10/31 13:21:37;;;;;;;15.90;5.40;;;;;;;22.75;50.03;99408.56;225645;1248;139858;-64
2022/10/31 13:26:48;;;;;;;303.30;214.70;;;;;;;22.75;49.85;99410.66;225616;1236;140018;-63
2022/10/31 13:31:51;;;;;;;20.50;9.90;;;;;;;22.74;49.76;99410.81;225548;1244;139638;-64
2022/10/31 13:36:57;;;;;;;19.30;6.20;;;;;;;22.69;49.68;99408.15;225578;1243;139192;-65
2022/10/31 13:42:10;;;;;;;15.30;6.10;;;;;;;22.63;49.59;99406.77;226429;1230;140598;-67
2022/10/31 13:47:28;;;;;;;16.50;6.10;;;;;;;22.58;49.59;99408.13;225579;1240;139054;-66
2022/10/31 13:52:31;;;;;;;16.90;6.30;;;;;;;22.54;49.43;99404.97;225689;1244;138749;-68
2022/10/31 13:57:43;;;;;;;15.00;6.60;;;;;;;22.50;49.39;99404.70;226572;1242;139001;-67
2022/10/31 14:02:57;;;;;;;15.80;6.40;;;;;;;22.47;49.31;99404.69;225345;1242;140329;-66
2022/10/31 14:08:06;;;;;;;20.20;6.50;;;;;;;22.42;49.33;99401.69;226376;1238;139302;-67
2022/10/31 14:13:18;;;;;;;18.00;7.10;;;;;;;22.38;49.46;99396.92;225439;1244;139324;-64
2022/10/31 14:18:30;;;;;;;15.10;6.90;;;;;;;22.33;49.52;99391.50;225173;1246;139439;-68
2022/10/31 14:23:40;;;;;;;15.50;6.40;;;;;;;22.24;49.86;99393.73;226529;1237;138961;-66
2022/10/31 14:28:44;;;;;;;19.50;6.30;;;;;;;22.10;50.22;99392.60;225534;1250;139431;-68
2022/10/31 14:33:47;;;;;;;15.80;6.00;;;;;;;21.96;50.45;99387.52;225336;1239;138896;-66
2022/10/31 14:38:55;;;;;;;19.10;7.00;;;;;;;21.89;50.56;99386.88;225611;1245;139394;-68
2022/10/31 14:44:37;;;;;;;59.20;33.60;;;;;;;21.83;50.67;99387.10;225625;1244;139371;-66
2022/10/31 14:50:00;;;;;;;35.40;17.70;;;;;;;21.80;50.61;99385.22;225618;1237;139851;-64
2022/10/31 14:55:07;;;;;;;18.70;8.70;;;;;;;21.77;50.72;99390.05;225525;1252;139620;-63
2022/10/31 15:00:17;;;;;;;25.20;8.30;;;;;;;21.70;50.79;99383.36;226622;1234;139578;-67
2022/10/31 15:05:21;;;;;;;27.00;9.00;;;;;;;21.61;51.02;99382.67;225566;1244;139659;-68
2022/10/31 15:10:29;;;;;;;26.40;8.30;;;;;;;21.45;51.09;99386.23;226656;1235;229786;-66
2022/10/31 15:15:33;;;;;;;33.90;9.10;;;;;;;21.26;51.30;99389.67;225670;1240;139410;-66
2022/10/31 15:20:43;;;;;;;21.70;7.90;;;;;;;21.05;51.51;99393.77;226528;1234;139565;-67
2022/10/31 15:25:46;;;;;;;25.60;8.80;;;;;;;20.84;51.83;99392.23;225468;1241;139240;-66
2022/10/31 15:30:55;;;;;;;33.50;9.80;;;;;;;20.68;52.58;99394.15;225564;1251;139532;-67
2022/10/31 15:36:00;;;;;;;19.90;8.30;;;;;;;20.58;52.99;99392.09;226394;1235;139609;-67
2022/10/31 15:41:21;;;;;;;22.00;10.10;;;;;;;20.49;53.31;99394.69;226507;1234;139057;-65
2022/10/31 15:46:27;;;;;;;36.00;13.40;;;;;;;20.38;53.44;99400.53;225583;1244;139174;-67
2022/10/31 15:51:33;;;;;;;35.40;15.40;;;;;;;20.24;53.55;99402.88;225529;1247;139156;-67
2022/10/31 15:56:36;;;;;;;34.50;15.20;;;;;;;20.11;53.60;99406.71;225772;1245;138832;-63
2022/10/31 16:01:39;;;;;;;39.90;17.60;;;;;;;19.91;53.36;99406.08;225754;1244;139052;-64
2022/10/31 16:06:42;;;;;;;38.80;16.40;;;;;;;19.67;53.43;99405.66;225616;1253;139320;-64
2022/10/31 16:11:45;;;;;;;33.20;14.70;;;;;;;19.43;53.63;99409.27;225619;1244;139783;-65
2022/10/31 16:16:52;;;;;;;28.90;12.80;;;;;;;19.24;54.00;99416.81;225795;1237;139904;-65
2022/10/31 16:22:08;;;;;;;26.40;11.40;;;;;;;19.05;54.30;99413.48;225348;1244;140072;-67
2022/10/31 16:27:23;;;;;;;32.00;12.10;;;;;;;18.90;54.57;99416.82;226581;1236;139920;-67
2022/10/31 16:32:51;;;;;;;32.90;11.80;;;;;;;18.76;54.85;99425.54;225105;1253;140604;-63
2022/10/31 16:37:54;;;;;;;31.70;12.30;;;;;;;18.59;55.07;99427.54;225127;1251;139499;-64
2022/10/31 16:42:59;;;;;;;27.60;12.20;;;;;;;18.46;55.43;99430.81;226598;1235;139542;-66
2022/10/31 16:48:08;;;;;;;;;;;;;;;18.31;55.66;99432.50;226299;1239;139565;-65
2022/10/31 16:53:14;;;;;;;28.30;12.30;;;;;;;18.16;56.03;99428.47;225820;1242;126023;-66
2022/10/31 16:58:35;;;;;;;34.50;13.10;;;;;;;18.03;56.13;99429.41;225679;1246;140669;-65
2022/10/31 17:03:39;;;;;;;28.40;13.30;;;;;;;17.91;56.57;99432.95;225588;1244;140073;-66
2022/10/31 17:08:41;;;;;;;28.80;11.80;;;;;;;17.81;56.78;99432.71;225276;1246;139342;-65
2022/10/31 17:13:45;;;;;;;28.60;13.30;;;;;;;17.75;56.90;99437.15;225611;1244;139959;-66
2022/10/31 17:18:48;;;;;;;28.50;13.30;;;;;;;17.72;57.13;99436.65;226391;1230;140330;-65
2022/10/31 17:23:51;;;;;;;33.60;14.10;;;;;;;17.67;57.37;99435.73;226350;1239;139278;-66
2022/10/31 17:28:54;;;;;;;41.50;16.10;;;;;;;17.59;57.55;99437.23;225306;1243;139701;-63
2022/10/31 17:33:59;;;;;;;115.20;68.50;;;;;;;17.52;57.71;99434.45;226257;1237;140259;-69
2022/10/31 17:39:08;;;;;;;47.80;18.20;;;;;;;17.57;58.58;99436.92;225327;1238;140717;-66
2022/10/31 17:44:11;;;;;;;45.00;18.80;;;;;;;17.48;58.04;99436.55;225280;1245;139502;-66
2022/10/31 17:49:14;;;;;;;39.70;17.90;;;;;;;17.37;58.15;99435.91;225366;1245;139570;-65
2022/10/31 17:54:21;;;;;;;38.00;18.40;;;;;;;17.23;58.09;99437.22;225476;1237;140628;-64
2022/10/31 17:59:26;;;;;;;41.10;18.80;;;;;;;17.11;58.43;99438.05;225615;1243;139302;-65
2022/10/31 18:04:29;;;;;;;34.60;17.70;;;;;;;17.00;58.77;99436.04;226712;1230;139963;-64
2022/10/31 18:09:33;;;;;;;34.30;17.60;;;;;;;16.89;58.74;99439.67;225432;1243;139231;-66
2022/10/31 18:14:36;;;;;;;33.90;17.40;;;;;;;16.80;59.01;99436.51;225601;1241;140137;-66
2022/10/31 18:19:39;;;;;;;40.40;17.80;;;;;;;16.77;59.13;99436.89;225560;1247;140623;-65
2022/10/31 18:24:42;;;;;;;32.10;17.20;;;;;;;16.71;59.32;99434.64;225345;1241;140449;-67
2022/10/31 18:29:45;;;;;;;32.20;17.60;;;;;;;16.65;59.53;99433.87;225477;1246;140402;-66
2022/10/31 18:34:49;;;;;;;41.70;19.10;;;;;;;16.56;59.42;99429.06;225680;1244;139856;-67
2022/10/31 18:39:52;;;;;;;42.90;18.40;;;;;;;16.47;59.40;99423.52;225621;1244;139134;-67
2022/10/31 18:44:55;;;;;;;40.90;18.60;;;;;;;16.37;59.58;99421.29;226649;1236;139465;-66
2022/10/31 18:49:58;;;;;;;39.00;19.20;;;;;;;16.25;59.73;99415.95;226281;1239;139871;-65
2022/10/31 18:55:03;;;;;;;33.60;17.60;;;;;;;16.13;59.69;99429.06;226446;1238;139831;-64
2022/10/31 19:00:06;;;;;;;39.30;18.80;;;;;;;16.02;59.85;99426.23;225563;1244;139886;-65
2022/10/31 19:05:09;;;;;;;89.90;55.80;;;;;;;15.91;59.81;99427.23;225608;1230;140103;-65
2022/10/31 19:10:16;;;;;;;44.00;18.00;;;;;;;15.88;59.94;99425.30;226681;1237;140128;-66
2022/10/31 19:15:19;;;;;;;35.20;17.90;;;;;;;15.86;60.17;99422.08;225449;1245;139594;-65
2022/10/31 19:20:22;;;;;;;38.80;19.20;;;;;;;15.82;60.31;99419.55;225564;1243;139660;-67
2022/10/31 19:25:25;;;;;;;32.80;18.50;;;;;;;15.75;60.32;99414.15;225552;1240;139532;-65
2022/10/31 19:30:28;;;;;;;36.10;19.00;;;;;;;15.67;60.29;99410.34;225434;1250;140221;-66
2022/10/31 19:35:31;;;;;;;41.80;19.60;;;;;;;15.58;60.28;99405.45;225604;1239;139471;-64
2022/10/31 19:40:35;;;;;;;46.50;22.30;;;;;;;15.49;60.27;99410.98;225597;1244;140001;-65
2022/10/31 19:45:38;;;;;;;40.80;20.40;;;;;;;15.37;60.40;99408.98;225525;1240;143139;-65
2022/10/31 19:50:41;;;;;;;41.60;19.80;;;;;;;15.30;60.71;99413.45;225596;1244;139983;-64
2022/10/31 19:55:44;;;;;;;37.10;18.40;;;;;;;15.24;60.84;99413.88;225573;1244;139690;-70
2022/10/31 20:00:47;;;;;;;51.00;28.70;;;;;;;15.23;60.93;99410.45;226383;1239;140060;-66
2022/10/31 20:05:50;;;;;;;38.10;20.60;;;;;;;15.28;61.11;99412.55;225580;1240;140098;-68
2022/10/31 20:11:02;;;;;;;48.50;22.70;;;;;;;15.29;60.97;99405.88;225694;1237;139889;-66
2022/10/31 20:16:08;;;;;;;44.60;22.80;;;;;;;15.22;60.92;99407.48;225424;1244;139412;-67
2022/10/31 20:21:14;;;;;;;42.40;25.30;;;;;;;15.10;60.84;99404.38;225331;1237;139912;-64
2022/10/31 20:26:18;;;;;;;;;;;;;;;15.00;60.81;99402.51;225616;1243;139029;-65
2022/10/31 20:31:23;;;;;;;55.60;29.80;;;;;;;14.89;61.11;99405.83;225653;1237;126108;-64
2022/10/31 20:36:28;;;;;;;57.50;31.00;;;;;;;14.79;61.19;99403.14;225353;1231;139425;-66
2022/10/31 20:41:31;;;;;;;61.10;28.60;;;;;;;14.73;61.33;99401.45;225529;1231;139732;-64
2022/10/31 20:46:34;;;;;;;75.60;45.60;;;;;;;14.69;61.41;99405.16;225610;1245;139347;-65
2022/10/31 20:51:37;;;;;;;50.60;27.70;;;;;;;14.68;61.45;99404.30;226573;1236;140226;-63
2022/10/31 20:56:41;;;;;;;51.00;28.50;;;;;;;14.71;61.55;99401.63;225439;1237;139450;-69
2022/10/31 21:01:44;;;;;;;51.60;29.70;;;;;;;14.68;61.60;99398.05;225544;1245;139582;-64
2022/10/31 21:06:47;;;;;;;53.50;29.40;;;;;;;14.63;61.76;99402.53;226550;1237;140260;-64
2022/10/31 21:11:51;;;;;;;58.70;30.40;;;;;;;14.58;61.75;99403.95;226577;1233;140189;-67
2022/10/31 21:16:54;;;;;;;189.70;114.50;;;;;;;14.54;61.89;99393.89;225539;1248;140014;-67
2022/10/31 21:21:57;;;;;;;59.80;31.80;;;;;;;14.55;62.17;99397.04;226191;1247;140420;-66
2022/10/31 21:27:00;;;;;;;49.60;29.40;;;;;;;14.51;61.94;99395.58;225303;1243;139748;-63
2022/10/31 21:32:04;;;;;;;57.60;30.10;;;;;;;14.40;61.84;99390.94;225390;1233;139121;-65
2022/10/31 21:37:07;;;;;;;56.80;28.20;;;;;;;14.32;61.87;99389.05;225547;1247;139437;-65
2022/10/31 21:42:10;;;;;;;63.70;31.10;;;;;;;14.30;61.95;99386.89;225372;1246;140458;-65
2022/10/31 21:47:13;;;;;;;56.90;29.40;;;;;;;14.29;62.05;99385.15;226404;1234;139864;-66
2022/10/31 21:52:17;;;;;;;55.10;31.00;;;;;;;14.26;62.12;99381.04;225448;1246;139718;-66
2022/10/31 21:57:19;;;;;;;56.30;30.70;;;;;;;14.25;62.13;99375.60;225350;1246;139637;-66
2022/10/31 22:02:23;;;;;;;48.60;29.80;;;;;;;14.16;62.08;99370.20;225525;1241;138995;-66
2022/10/31 22:07:26;;;;;;;52.30;29.80;;;;;;;14.07;62.15;99367.10;226363;1236;139443;-66
2022/10/31 22:12:29;;;;;;;53.60;32.30;;;;;;;13.97;62.16;99361.77;225433;1241;139740;-65
2022/10/31 22:17:32;;;;;;;57.30;31.00;;;;;;;13.88;62.17;99354.51;225408;1247;139726;-67
2022/10/31 22:22:35;;;;;;;52.80;29.10;;;;;;;13.80;62.30;99351.17;225550;1245;139734;-65
2022/10/31 22:27:38;;;;;;;52.30;29.70;;;;;;;13.81;62.32;99350.95;225418;1239;140646;-64
2022/10/31 22:32:41;;;;;;;58.20;31.00;;;;;;;13.81;62.33;99346.81;226364;1239;139542;-66
2022/10/31 22:37:44;;;;;;;52.70;30.00;;;;;;;13.78;62.15;99342.42;225474;1245;139929;-65
2022/10/31 22:42:46;;;;;;;57.30;30.80;;;;;;;13.70;62.15;99336.49;225402;1246;139675;-66
2022/10/31 22:47:49;;;;;;;55.50;30.90;;;;;;;13.63;62.06;99340.95;225535;1245;139372;-65
2022/10/31 22:52:52;;;;;;;54.20;30.50;;;;;;;13.53;61.93;99337.55;226627;1236;139615;-67
2022/10/31 22:57:56;;;;;;;54.40;30.70;;;;;;;13.43;62.06;99335.55;225516;1245;138893;-66
2022/10/31 23:03:00;;;;;;;50.60;30.80;;;;;;;13.33;61.97;99330.53;226235;1239;140003;-64
2022/10/31 23:08:03;;;;;;;57.10;31.90;;;;;;;13.25;62.13;99328.23;225424;1244;140768;-66
2022/10/31 23:18:31;;;;;;;53.40;29.20;;;;;;;13.29;62.40;99319.99;225491;1243;140397;-66